sensor_id;sensor_type;location;lat;lon;timestamp;P1;durP1;ratioP1;P2;durP2;ratioP2
84411;SDS011;74609;44.028;20.950;2024-02-14T00:01:55;5.10;;;2.90;;
84411;SDS011;74609;44.028;20.950;2024-02-14T00:04:21;3.30;;;2.40;;
84411;SDS011;74609;44.028;20.950;2024-02-14T00:06:47;5.63;;;3.65;;
84411;SDS011;74609;44.028;20.950;2024-02-14T00:09:13;4.30;;;3.05;;
84411;SDS011;74609;44.028;20.950;2024-02-14T00:11:39;5.50;;;3.05;;
84411;SDS011;74609;44.028;20.950;2024-02-14T00:14:05;4.47;;;2.97;;
84411;SDS011;74609;44.028;20.950;2024-02-14T00:16:32;4.10;;;3.17;;
84411;SDS011;74609;44.028;20.950;2024-02-14T00:18:58;3.90;;;2.78;;
84411;SDS011;74609;44.028;20.950;2024-02-14T00:21:24;4.85;;;3.08;;
84411;SDS011;74609;44.028;20.950;2024-02-14T00:23:50;4.03;;;2.70;;
84411;SDS011;74609;44.028;20.950;2024-02-14T00:26:16;5.90;;;3.40;;
84411;SDS011;74609;44.028;20.950;2024-02-14T00:28:42;4.20;;;2.70;;
84411;SDS011;74609;44.028;20.950;2024-02-14T00:31:08;7.53;;;3.40;;
84411;SDS011;74609;44.028;20.950;2024-02-14T00:33:35;5.88;;;2.90;;
84411;SDS011;74609;44.028;20.950;2024-02-14T00:36:01;5.07;;;2.58;;
84411;SDS011;74609;44.028;20.950;2024-02-14T00:38:27;4.82;;;2.60;;
84411;SDS011;74609;44.028;20.950;2024-02-14T00:40:53;4.90;;;2.95;;
84411;SDS011;74609;44.028;20.950;2024-02-14T00:43:19;4.10;;;3.30;;
84411;SDS011;74609;44.028;20.950;2024-02-14T00:45:45;5.28;;;3.25;;
84411;SDS011;74609;44.028;20.950;2024-02-14T00:48:12;4.43;;;3.20;;
84411;SDS011;74609;44.028;20.950;2024-02-14T00:50:38;4.45;;;2.80;;
84411;SDS011;74609;44.028;20.950;2024-02-14T00:53:04;5.47;;;3.30;;
84411;SDS011;74609;44.028;20.950;2024-02-14T00:55:30;4.82;;;2.65;;
84411;SDS011;74609;44.028;20.950;2024-02-14T00:57:57;4.90;;;2.80;;
84411;SDS011;74609;44.028;20.950;2024-02-14T01:00:23;6.20;;;2.65;;
84411;SDS011;74609;44.028;20.950;2024-02-14T01:02:49;5.10;;;3.78;;
84411;SDS011;74609;44.028;20.950;2024-02-14T01:05:16;6.13;;;3.25;;
84411;SDS011;74609;44.028;20.950;2024-02-14T01:07:42;4.43;;;2.70;;
84411;SDS011;74609;44.028;20.950;2024-02-14T01:10:08;4.28;;;3.05;;
84411;SDS011;74609;44.028;20.950;2024-02-14T01:12:34;5.18;;;3.13;;
84411;SDS011;74609;44.028;20.950;2024-02-14T01:15:00;6.13;;;3.78;;
84411;SDS011;74609;44.028;20.950;2024-02-14T01:17:27;5.68;;;3.10;;
84411;SDS011;74609;44.028;20.950;2024-02-14T01:19:53;5.13;;;3.50;;
84411;SDS011;74609;44.028;20.950;2024-02-14T01:22:19;4.53;;;3.40;;
84411;SDS011;74609;44.028;20.950;2024-02-14T01:24:46;4.80;;;3.08;;
84411;SDS011;74609;44.028;20.950;2024-02-14T01:27:12;6.32;;;3.67;;
84411;SDS011;74609;44.028;20.950;2024-02-14T01:29:38;4.13;;;2.88;;
84411;SDS011;74609;44.028;20.950;2024-02-14T01:32:04;4.25;;;2.90;;
84411;SDS011;74609;44.028;20.950;2024-02-14T01:34:32;4.75;;;2.67;;
84411;SDS011;74609;44.028;20.950;2024-02-14T01:36:58;5.47;;;2.92;;
84411;SDS011;74609;44.028;20.950;2024-02-14T01:39:24;4.47;;;2.60;;
84411;SDS011;74609;44.028;20.950;2024-02-14T01:41:50;5.07;;;2.83;;
84411;SDS011;74609;44.028;20.950;2024-02-14T01:44:16;5.25;;;2.75;;
84411;SDS011;74609;44.028;20.950;2024-02-14T01:46:43;5.90;;;3.50;;
84411;SDS011;74609;44.028;20.950;2024-02-14T01:49:09;3.95;;;2.28;;
84411;SDS011;74609;44.028;20.950;2024-02-14T01:51:37;7.47;;;2.97;;
84411;SDS011;74609;44.028;20.950;2024-02-14T01:54:03;5.53;;;2.63;;
84411;SDS011;74609;44.028;20.950;2024-02-14T01:56:31;4.90;;;2.75;;
84411;SDS011;74609;44.028;20.950;2024-02-14T01:58:58;5.40;;;3.42;;
84411;SDS011;74609;44.028;20.950;2024-02-14T02:01:24;6.15;;;3.30;;
84411;SDS011;74609;44.028;20.950;2024-02-14T02:03:51;6.13;;;3.08;;
84411;SDS011;74609;44.028;20.950;2024-02-14T02:06:17;5.40;;;3.10;;
84411;SDS011;74609;44.028;20.950;2024-02-14T02:08:43;6.15;;;3.00;;
84411;SDS011;74609;44.028;20.950;2024-02-14T02:11:09;5.43;;;3.58;;
84411;SDS011;74609;44.028;20.950;2024-02-14T02:13:35;4.90;;;3.00;;
84411;SDS011;74609;44.028;20.950;2024-02-14T02:16:04;4.63;;;2.80;;
84411;SDS011;74609;44.028;20.950;2024-02-14T02:18:34;5.38;;;2.72;;
84411;SDS011;74609;44.028;20.950;2024-02-14T02:21:00;6.15;;;2.90;;
84411;SDS011;74609;44.028;20.950;2024-02-14T02:23:29;5.47;;;2.97;;
84411;SDS011;74609;44.028;20.950;2024-02-14T02:25:56;7.05;;;3.33;;
84411;SDS011;74609;44.028;20.950;2024-02-14T02:28:22;7.05;;;3.75;;
84411;SDS011;74609;44.028;20.950;2024-02-14T02:30:48;5.10;;;2.75;;
84411;SDS011;74609;44.028;20.950;2024-02-14T02:33:15;5.95;;;3.17;;
84411;SDS011;74609;44.028;20.950;2024-02-14T02:35:41;4.15;;;2.80;;
84411;SDS011;74609;44.028;20.950;2024-02-14T02:38:10;6.28;;;3.35;;
84411;SDS011;74609;44.028;20.950;2024-02-14T02:40:36;6.47;;;3.13;;
84411;SDS011;74609;44.028;20.950;2024-02-14T02:43:02;6.32;;;2.58;;
84411;SDS011;74609;44.028;20.950;2024-02-14T02:45:28;5.95;;;2.85;;
84411;SDS011;74609;44.028;20.950;2024-02-14T02:47:54;7.82;;;3.47;;
84411;SDS011;74609;44.028;20.950;2024-02-14T02:50:21;6.15;;;2.88;;
84411;SDS011;74609;44.028;20.950;2024-02-14T02:52:47;7.72;;;3.15;;
84411;SDS011;74609;44.028;20.950;2024-02-14T02:55:13;6.78;;;3.65;;
84411;SDS011;74609;44.028;20.950;2024-02-14T02:57:42;5.75;;;3.60;;
84411;SDS011;74609;44.028;20.950;2024-02-14T03:00:10;5.38;;;3.20;;
84411;SDS011;74609;44.028;20.950;2024-02-14T03:02:41;5.65;;;2.90;;
84411;SDS011;74609;44.028;20.950;2024-02-14T03:05:09;5.72;;;3.15;;
84411;SDS011;74609;44.028;20.950;2024-02-14T03:07:42;5.07;;;2.63;;
84411;SDS011;74609;44.028;20.950;2024-02-14T03:10:10;6.53;;;3.15;;
84411;SDS011;74609;44.028;20.950;2024-02-14T03:12:39;7.15;;;3.40;;
84411;SDS011;74609;44.028;20.950;2024-02-14T03:15:06;6.75;;;3.25;;
84411;SDS011;74609;44.028;20.950;2024-02-14T03:17:35;6.63;;;3.58;;
84411;SDS011;74609;44.028;20.950;2024-02-14T03:20:02;5.05;;;2.70;;
84411;SDS011;74609;44.028;20.950;2024-02-14T03:22:35;6.55;;;3.50;;
84411;SDS011;74609;44.028;20.950;2024-02-14T03:25:01;6.00;;;2.50;;
84411;SDS011;74609;44.028;20.950;2024-02-14T03:27:27;6.60;;;3.38;;
84411;SDS011;74609;44.028;20.950;2024-02-14T03:29:56;6.13;;;3.75;;
84411;SDS011;74609;44.028;20.950;2024-02-14T03:32:24;6.43;;;3.10;;
84411;SDS011;74609;44.028;20.950;2024-02-14T03:34:51;7.93;;;3.60;;
84411;SDS011;74609;44.028;20.950;2024-02-14T03:37:17;7.03;;;3.20;;
84411;SDS011;74609;44.028;20.950;2024-02-14T03:39:43;6.65;;;2.83;;
84411;SDS011;74609;44.028;20.950;2024-02-14T03:42:10;5.85;;;3.33;;
84411;SDS011;74609;44.028;20.950;2024-02-14T03:44:36;5.72;;;3.08;;
84411;SDS011;74609;44.028;20.950;2024-02-14T03:47:03;7.03;;;3.63;;
84411;SDS011;74609;44.028;20.950;2024-02-14T03:49:29;7.20;;;3.03;;
84411;SDS011;74609;44.028;20.950;2024-02-14T03:51:56;8.80;;;4.18;;
84411;SDS011;74609;44.028;20.950;2024-02-14T03:54:22;9.40;;;3.63;;
84411;SDS011;74609;44.028;20.950;2024-02-14T03:56:48;6.25;;;2.90;;
84411;SDS011;74609;44.028;20.950;2024-02-14T03:59:16;8.25;;;3.10;;
84411;SDS011;74609;44.028;20.950;2024-02-14T04:01:49;7.38;;;3.53;;
84411;SDS011;74609;44.028;20.950;2024-02-14T04:04:18;8.73;;;3.92;;
84411;SDS011;74609;44.028;20.950;2024-02-14T04:06:44;8.10;;;3.45;;
84411;SDS011;74609;44.028;20.950;2024-02-14T04:09:11;8.18;;;3.25;;
84411;SDS011;74609;44.028;20.950;2024-02-14T04:11:37;7.25;;;4.03;;
84411;SDS011;74609;44.028;20.950;2024-02-14T04:14:03;6.70;;;3.50;;
84411;SDS011;74609;44.028;20.950;2024-02-14T04:16:29;8.45;;;4.38;;
84411;SDS011;74609;44.028;20.950;2024-02-14T04:18:55;7.80;;;4.43;;
84411;SDS011;74609;44.028;20.950;2024-02-14T04:21:21;6.68;;;3.60;;
84411;SDS011;74609;44.028;20.950;2024-02-14T04:23:47;7.93;;;3.53;;
84411;SDS011;74609;44.028;20.950;2024-02-14T04:26:20;7.97;;;4.63;;
84411;SDS011;74609;44.028;20.950;2024-02-14T04:28:46;14.27;;;6.65;;
84411;SDS011;74609;44.028;20.950;2024-02-14T04:31:12;12.43;;;5.00;;
84411;SDS011;74609;44.028;20.950;2024-02-14T04:33:38;13.05;;;5.15;;
84411;SDS011;74609;44.028;20.950;2024-02-14T04:36:05;8.82;;;3.80;;
84411;SDS011;74609;44.028;20.950;2024-02-14T04:38:31;8.10;;;3.55;;
84411;SDS011;74609;44.028;20.950;2024-02-14T04:40:57;6.72;;;3.45;;
84411;SDS011;74609;44.028;20.950;2024-02-14T04:43:24;6.03;;;3.35;;
84411;SDS011;74609;44.028;20.950;2024-02-14T04:45:50;8.32;;;3.40;;
84411;SDS011;74609;44.028;20.950;2024-02-14T04:48:16;6.45;;;3.83;;
84411;SDS011;74609;44.028;20.950;2024-02-14T04:50:42;7.32;;;4.05;;
84411;SDS011;74609;44.028;20.950;2024-02-14T04:53:09;7.45;;;3.63;;
84411;SDS011;74609;44.028;20.950;2024-02-14T04:55:35;7.22;;;3.55;;
84411;SDS011;74609;44.028;20.950;2024-02-14T04:58:01;7.75;;;3.85;;
84411;SDS011;74609;44.028;20.950;2024-02-14T05:00:27;7.95;;;4.22;;
84411;SDS011;74609;44.028;20.950;2024-02-14T05:02:53;7.35;;;4.32;;
84411;SDS011;74609;44.028;20.950;2024-02-14T05:05:19;8.82;;;4.03;;
84411;SDS011;74609;44.028;20.950;2024-02-14T05:07:46;7.75;;;4.35;;
84411;SDS011;74609;44.028;20.950;2024-02-14T05:10:12;7.93;;;3.92;;
84411;SDS011;74609;44.028;20.950;2024-02-14T05:12:39;7.95;;;4.22;;
84411;SDS011;74609;44.028;20.950;2024-02-14T05:15:06;6.50;;;3.80;;
84411;SDS011;74609;44.028;20.950;2024-02-14T05:17:32;7.22;;;4.00;;
84411;SDS011;74609;44.028;20.950;2024-02-14T05:19:59;6.35;;;3.65;;
84411;SDS011;74609;44.028;20.950;2024-02-14T05:22:25;9.82;;;5.85;;
84411;SDS011;74609;44.028;20.950;2024-02-14T05:24:51;8.70;;;4.45;;
84411;SDS011;74609;44.028;20.950;2024-02-14T05:27:17;7.93;;;4.28;;
84411;SDS011;74609;44.028;20.950;2024-02-14T05:29:43;8.23;;;4.70;;
84411;SDS011;74609;44.028;20.950;2024-02-14T05:32:09;6.32;;;3.67;;
84411;SDS011;74609;44.028;20.950;2024-02-14T05:34:35;7.47;;;3.60;;
84411;SDS011;74609;44.028;20.950;2024-02-14T05:37:01;7.38;;;4.30;;
84411;SDS011;74609;44.028;20.950;2024-02-14T05:39:27;6.13;;;3.88;;
84411;SDS011;74609;44.028;20.950;2024-02-14T05:41:53;5.32;;;4.05;;
84411;SDS011;74609;44.028;20.950;2024-02-14T05:44:20;7.65;;;3.85;;
84411;SDS011;74609;44.028;20.950;2024-02-14T05:46:47;7.13;;;4.32;;
84411;SDS011;74609;44.028;20.950;2024-02-14T05:49:13;5.70;;;3.53;;
84411;SDS011;74609;44.028;20.950;2024-02-14T05:51:39;6.47;;;3.55;;
84411;SDS011;74609;44.028;20.950;2024-02-14T05:54:06;5.82;;;3.67;;
84411;SDS011;74609;44.028;20.950;2024-02-14T05:56:32;5.68;;;3.70;;
84411;SDS011;74609;44.028;20.950;2024-02-14T05:58:58;5.43;;;3.40;;
84411;SDS011;74609;44.028;20.950;2024-02-14T06:01:24;7.57;;;3.70;;
84411;SDS011;74609;44.028;20.950;2024-02-14T06:03:50;6.47;;;3.40;;
84411;SDS011;74609;44.028;20.950;2024-02-14T06:06:16;6.53;;;3.88;;
84411;SDS011;74609;44.028;20.950;2024-02-14T06:08:42;5.20;;;3.05;;
84411;SDS011;74609;44.028;20.950;2024-02-14T06:11:09;5.20;;;3.33;;
84411;SDS011;74609;44.028;20.950;2024-02-14T06:13:37;9.10;;;4.45;;
84411;SDS011;74609;44.028;20.950;2024-02-14T06:16:03;6.20;;;3.30;;
84411;SDS011;74609;44.028;20.950;2024-02-14T06:18:30;5.65;;;3.35;;
84411;SDS011;74609;44.028;20.950;2024-02-14T06:20:56;6.38;;;3.22;;
84411;SDS011;74609;44.028;20.950;2024-02-14T06:23:22;6.78;;;3.38;;
84411;SDS011;74609;44.028;20.950;2024-02-14T06:25:48;5.97;;;2.60;;
84411;SDS011;74609;44.028;20.950;2024-02-14T06:28:14;7.93;;;2.85;;
84411;SDS011;74609;44.028;20.950;2024-02-14T06:30:40;4.53;;;3.05;;
84411;SDS011;74609;44.028;20.950;2024-02-14T06:33:06;5.22;;;3.47;;
84411;SDS011;74609;44.028;20.950;2024-02-14T06:35:32;5.93;;;3.67;;
84411;SDS011;74609;44.028;20.950;2024-02-14T06:37:58;5.78;;;3.50;;
84411;SDS011;74609;44.028;20.950;2024-02-14T06:40:25;6.07;;;2.65;;
84411;SDS011;74609;44.028;20.950;2024-02-14T06:42:52;5.95;;;3.30;;
84411;SDS011;74609;44.028;20.950;2024-02-14T06:45:19;7.38;;;3.40;;
84411;SDS011;74609;44.028;20.950;2024-02-14T06:47:46;4.95;;;2.72;;
84411;SDS011;74609;44.028;20.950;2024-02-14T06:50:12;6.15;;;2.97;;
84411;SDS011;74609;44.028;20.950;2024-02-14T06:52:38;7.57;;;5.20;;
84411;SDS011;74609;44.028;20.950;2024-02-14T06:55:04;8.70;;;5.30;;
84411;SDS011;74609;44.028;20.950;2024-02-14T06:57:30;8.15;;;5.28;;
84411;SDS011;74609;44.028;20.950;2024-02-14T06:59:56;9.25;;;5.30;;
84411;SDS011;74609;44.028;20.950;2024-02-14T07:02:22;11.38;;;5.40;;
84411;SDS011;74609;44.028;20.950;2024-02-14T07:04:52;8.90;;;5.80;;
84411;SDS011;74609;44.028;20.950;2024-02-14T07:07:19;7.93;;;5.18;;
84411;SDS011;74609;44.028;20.950;2024-02-14T07:09:45;8.90;;;5.30;;
84411;SDS011;74609;44.028;20.950;2024-02-14T07:12:12;7.70;;;5.10;;
84411;SDS011;74609;44.028;20.950;2024-02-14T07:14:38;9.32;;;5.88;;
84411;SDS011;74609;44.028;20.950;2024-02-14T07:17:04;8.52;;;5.13;;
84411;SDS011;74609;44.028;20.950;2024-02-14T07:19:30;7.97;;;4.95;;
84411;SDS011;74609;44.028;20.950;2024-02-14T07:21:57;6.47;;;4.65;;
84411;SDS011;74609;44.028;20.950;2024-02-14T07:24:23;9.85;;;5.38;;
84411;SDS011;74609;44.028;20.950;2024-02-14T07:26:49;8.95;;;5.80;;
84411;SDS011;74609;44.028;20.950;2024-02-14T07:29:15;9.27;;;5.53;;
84411;SDS011;74609;44.028;20.950;2024-02-14T07:31:41;9.90;;;5.90;;
84411;SDS011;74609;44.028;20.950;2024-02-14T07:34:07;7.38;;;5.25;;
84411;SDS011;74609;44.028;20.950;2024-02-14T07:36:33;8.55;;;5.25;;
84411;SDS011;74609;44.028;20.950;2024-02-14T07:38:59;10.43;;;5.18;;
84411;SDS011;74609;44.028;20.950;2024-02-14T07:41:25;8.77;;;5.32;;
84411;SDS011;74609;44.028;20.950;2024-02-14T07:43:51;8.65;;;4.95;;
84411;SDS011;74609;44.028;20.950;2024-02-14T07:46:20;7.57;;;5.15;;
84411;SDS011;74609;44.028;20.950;2024-02-14T07:48:47;5.88;;;4.32;;
84411;SDS011;74609;44.028;20.950;2024-02-14T07:51:14;8.85;;;4.88;;
84411;SDS011;74609;44.028;20.950;2024-02-14T07:53:40;8.15;;;4.28;;
84411;SDS011;74609;44.028;20.950;2024-02-14T07:56:06;8.00;;;4.50;;
84411;SDS011;74609;44.028;20.950;2024-02-14T07:58:32;6.43;;;4.05;;
84411;SDS011;74609;44.028;20.950;2024-02-14T08:00:58;6.22;;;4.18;;
84411;SDS011;74609;44.028;20.950;2024-02-14T08:03:25;7.53;;;4.75;;
84411;SDS011;74609;44.028;20.950;2024-02-14T08:05:51;6.13;;;3.80;;
84411;SDS011;74609;44.028;20.950;2024-02-14T08:08:17;6.40;;;4.20;;
84411;SDS011;74609;44.028;20.950;2024-02-14T08:10:43;6.82;;;3.97;;
84411;SDS011;74609;44.028;20.950;2024-02-14T08:13:10;4.55;;;3.50;;
84411;SDS011;74609;44.028;20.950;2024-02-14T08:15:40;6.70;;;3.58;;
84411;SDS011;74609;44.028;20.950;2024-02-14T08:18:06;5.97;;;3.55;;
84411;SDS011;74609;44.028;20.950;2024-02-14T08:20:32;7.43;;;3.38;;
84411;SDS011;74609;44.028;20.950;2024-02-14T08:22:59;5.10;;;3.28;;
84411;SDS011;74609;44.028;20.950;2024-02-14T08:25:25;6.90;;;3.72;;
84411;SDS011;74609;44.028;20.950;2024-02-14T08:27:51;7.63;;;4.07;;
84411;SDS011;74609;44.028;20.950;2024-02-14T08:30:18;3.97;;;3.15;;
84411;SDS011;74609;44.028;20.950;2024-02-14T08:32:44;5.28;;;3.10;;
84411;SDS011;74609;44.028;20.950;2024-02-14T08:35:10;5.53;;;2.90;;
84411;SDS011;74609;44.028;20.950;2024-02-14T08:37:38;9.27;;;5.18;;
84411;SDS011;74609;44.028;20.950;2024-02-14T08:40:06;7.03;;;4.88;;
84411;SDS011;74609;44.028;20.950;2024-02-14T08:42:34;6.88;;;5.82;;
84411;SDS011;74609;44.028;20.950;2024-02-14T08:45:01;10.90;;;6.65;;
84411;SDS011;74609;44.028;20.950;2024-02-14T08:47:28;10.88;;;6.13;;
84411;SDS011;74609;44.028;20.950;2024-02-14T08:49:54;9.23;;;5.03;;
84411;SDS011;74609;44.028;20.950;2024-02-14T08:52:20;9.48;;;6.22;;
84411;SDS011;74609;44.028;20.950;2024-02-14T08:54:46;8.60;;;5.68;;
84411;SDS011;74609;44.028;20.950;2024-02-14T08:57:12;8.77;;;4.95;;
84411;SDS011;74609;44.028;20.950;2024-02-14T08:59:38;8.70;;;5.63;;
84411;SDS011;74609;44.028;20.950;2024-02-14T09:02:08;6.80;;;5.50;;
84411;SDS011;74609;44.028;20.950;2024-02-14T09:04:34;12.27;;;5.28;;
84411;SDS011;74609;44.028;20.950;2024-02-14T09:07:00;25.42;;;11.00;;
84411;SDS011;74609;44.028;20.950;2024-02-14T09:09:26;7.43;;;5.15;;
84411;SDS011;74609;44.028;20.950;2024-02-14T09:11:52;7.32;;;4.55;;
84411;SDS011;74609;44.028;20.950;2024-02-14T09:14:20;6.70;;;4.20;;
84411;SDS011;74609;44.028;20.950;2024-02-14T09:16:46;6.53;;;3.83;;
84411;SDS011;74609;44.028;20.950;2024-02-14T09:19:12;5.38;;;3.72;;
84411;SDS011;74609;44.028;20.950;2024-02-14T09:21:38;7.05;;;4.50;;
84411;SDS011;74609;44.028;20.950;2024-02-14T09:24:06;10.75;;;4.75;;
84411;SDS011;74609;44.028;20.950;2024-02-14T09:26:32;8.32;;;5.15;;
84411;SDS011;74609;44.028;20.950;2024-02-14T09:28:58;19.23;;;12.77;;
84411;SDS011;74609;44.028;20.950;2024-02-14T09:31:24;18.40;;;11.48;;
84411;SDS011;74609;44.028;20.950;2024-02-14T09:33:50;15.18;;;9.60;;
84411;SDS011;74609;44.028;20.950;2024-02-14T09:36:21;15.98;;;9.07;;
84411;SDS011;74609;44.028;20.950;2024-02-14T09:38:48;12.95;;;7.97;;
84411;SDS011;74609;44.028;20.950;2024-02-14T09:41:31;14.65;;;8.63;;
84411;SDS011;74609;44.028;20.950;2024-02-14T09:44:01;11.27;;;7.30;;
84411;SDS011;74609;44.028;20.950;2024-02-14T09:46:28;13.55;;;8.68;;
84411;SDS011;74609;44.028;20.950;2024-02-14T09:48:58;12.70;;;8.07;;
84411;SDS011;74609;44.028;20.950;2024-02-14T09:51:24;11.93;;;7.97;;
84411;SDS011;74609;44.028;20.950;2024-02-14T09:53:51;16.88;;;9.55;;
84411;SDS011;74609;44.028;20.950;2024-02-14T09:56:19;12.82;;;8.40;;
84411;SDS011;74609;44.028;20.950;2024-02-14T09:58:47;11.73;;;8.15;;
84411;SDS011;74609;44.028;20.950;2024-02-14T10:01:21;12.68;;;8.57;;
84411;SDS011;74609;44.028;20.950;2024-02-14T10:03:52;12.10;;;8.73;;
84411;SDS011;74609;44.028;20.950;2024-02-14T10:06:18;11.48;;;7.78;;
84411;SDS011;74609;44.028;20.950;2024-02-14T10:08:48;10.20;;;7.68;;
84411;SDS011;74609;44.028;20.950;2024-02-14T10:11:16;10.00;;;6.43;;
84411;SDS011;74609;44.028;20.950;2024-02-14T10:13:45;9.98;;;6.38;;
84411;SDS011;74609;44.028;20.950;2024-02-14T10:18:38;14.30;;;8.80;;
84411;SDS011;74609;44.028;20.950;2024-02-14T10:21:04;11.32;;;7.47;;
84411;SDS011;74609;44.028;20.950;2024-02-14T10:23:31;9.18;;;6.70;;
84411;SDS011;74609;44.028;20.950;2024-02-14T10:25:57;7.30;;;5.68;;
84411;SDS011;74609;44.028;20.950;2024-02-14T10:28:24;7.60;;;5.28;;
84411;SDS011;74609;44.028;20.950;2024-02-14T10:30:50;12.25;;;7.57;;
84411;SDS011;74609;44.028;20.950;2024-02-14T10:33:16;9.63;;;6.57;;
84411;SDS011;74609;44.028;20.950;2024-02-14T10:35:44;10.88;;;7.00;;
84411;SDS011;74609;44.028;20.950;2024-02-14T10:38:11;14.00;;;8.32;;
84411;SDS011;74609;44.028;20.950;2024-02-14T10:40:37;16.02;;;8.73;;
84411;SDS011;74609;44.028;20.950;2024-02-14T10:43:07;18.00;;;8.55;;
84411;SDS011;74609;44.028;20.950;2024-02-14T10:45:35;12.10;;;8.10;;
84411;SDS011;74609;44.028;20.950;2024-02-14T10:48:01;13.60;;;8.32;;
84411;SDS011;74609;44.028;20.950;2024-02-14T10:50:32;9.75;;;6.88;;
84411;SDS011;74609;44.028;20.950;2024-02-14T10:52:59;9.25;;;6.15;;
84411;SDS011;74609;44.028;20.950;2024-02-14T10:55:27;10.48;;;7.32;;
84411;SDS011;74609;44.028;20.950;2024-02-14T10:57:55;9.80;;;6.10;;
84411;SDS011;74609;44.028;20.950;2024-02-14T11:00:22;9.82;;;5.65;;
84411;SDS011;74609;44.028;20.950;2024-02-14T11:02:49;11.35;;;6.85;;
84411;SDS011;74609;44.028;20.950;2024-02-14T11:05:20;8.45;;;5.57;;
84411;SDS011;74609;44.028;20.950;2024-02-14T11:07:50;9.20;;;5.32;;
84411;SDS011;74609;44.028;20.950;2024-02-14T11:10:21;7.28;;;4.97;;
84411;SDS011;74609;44.028;20.950;2024-02-14T11:12:47;10.63;;;6.60;;
84411;SDS011;74609;44.028;20.950;2024-02-14T11:15:16;11.52;;;7.97;;
84411;SDS011;74609;44.028;20.950;2024-02-14T11:17:43;11.43;;;8.52;;
84411;SDS011;74609;44.028;20.950;2024-02-14T11:22:39;9.23;;;6.57;;
84411;SDS011;74609;44.028;20.950;2024-02-14T11:25:14;10.73;;;6.35;;
84411;SDS011;74609;44.028;20.950;2024-02-14T11:27:46;10.02;;;6.75;;
84411;SDS011;74609;44.028;20.950;2024-02-14T11:30:12;7.72;;;5.90;;
84411;SDS011;74609;44.028;20.950;2024-02-14T11:32:40;10.48;;;7.20;;
84411;SDS011;74609;44.028;20.950;2024-02-14T11:35:07;9.60;;;6.03;;
84411;SDS011;74609;44.028;20.950;2024-02-14T11:37:37;7.13;;;4.68;;
84411;SDS011;74609;44.028;20.950;2024-02-14T11:40:04;11.25;;;5.70;;
84411;SDS011;74609;44.028;20.950;2024-02-14T11:42:32;8.80;;;6.15;;
84411;SDS011;74609;44.028;20.950;2024-02-14T11:44:58;10.57;;;6.13;;
84411;SDS011;74609;44.028;20.950;2024-02-14T11:47:24;8.65;;;5.60;;
84411;SDS011;74609;44.028;20.950;2024-02-14T11:49:51;9.50;;;5.35;;
84411;SDS011;74609;44.028;20.950;2024-02-14T11:52:17;6.07;;;4.97;;
84411;SDS011;74609;44.028;20.950;2024-02-14T11:54:47;6.68;;;4.80;;
84411;SDS011;74609;44.028;20.950;2024-02-14T11:57:16;8.05;;;4.60;;
84411;SDS011;74609;44.028;20.950;2024-02-14T11:59:42;6.65;;;4.03;;
84411;SDS011;74609;44.028;20.950;2024-02-14T12:02:08;8.52;;;4.40;;
84411;SDS011;74609;44.028;20.950;2024-02-14T12:04:34;6.18;;;4.25;;
84411;SDS011;74609;44.028;20.950;2024-02-14T12:07:01;7.72;;;4.38;;
84411;SDS011;74609;44.028;20.950;2024-02-14T12:09:27;5.28;;;3.85;;
84411;SDS011;74609;44.028;20.950;2024-02-14T12:11:54;6.32;;;3.88;;
84411;SDS011;74609;44.028;20.950;2024-02-14T12:14:21;6.80;;;4.82;;
84411;SDS011;74609;44.028;20.950;2024-02-14T12:16:50;8.15;;;5.20;;
84411;SDS011;74609;44.028;20.950;2024-02-14T12:19:16;8.25;;;5.30;;
84411;SDS011;74609;44.028;20.950;2024-02-14T12:21:43;6.72;;;4.57;;
84411;SDS011;74609;44.028;20.950;2024-02-14T12:24:13;8.27;;;4.75;;
84411;SDS011;74609;44.028;20.950;2024-02-14T12:26:40;6.82;;;5.10;;
84411;SDS011;74609;44.028;20.950;2024-02-14T12:29:11;6.45;;;4.88;;
84411;SDS011;74609;44.028;20.950;2024-02-14T12:31:40;5.38;;;4.00;;
84411;SDS011;74609;44.028;20.950;2024-02-14T12:34:10;6.75;;;4.50;;
84411;SDS011;74609;44.028;20.950;2024-02-14T12:36:36;7.55;;;4.32;;
84411;SDS011;74609;44.028;20.950;2024-02-14T12:39:03;4.95;;;4.38;;
84411;SDS011;74609;44.028;20.950;2024-02-14T12:41:30;6.38;;;4.40;;
84411;SDS011;74609;44.028;20.950;2024-02-14T12:43:56;8.48;;;3.85;;
84411;SDS011;74609;44.028;20.950;2024-02-14T12:46:22;6.30;;;4.22;;
84411;SDS011;74609;44.028;20.950;2024-02-14T12:48:48;6.18;;;5.45;;
84411;SDS011;74609;44.028;20.950;2024-02-14T12:51:14;6.32;;;5.18;;
84411;SDS011;74609;44.028;20.950;2024-02-14T12:53:42;8.00;;;4.40;;
84411;SDS011;74609;44.028;20.950;2024-02-14T12:56:08;6.32;;;4.75;;
84411;SDS011;74609;44.028;20.950;2024-02-14T12:58:34;6.45;;;4.55;;
84411;SDS011;74609;44.028;20.950;2024-02-14T13:01:02;7.63;;;4.80;;
84411;SDS011;74609;44.028;20.950;2024-02-14T13:03:31;7.22;;;4.72;;
84411;SDS011;74609;44.028;20.950;2024-02-14T13:05:58;7.93;;;5.03;;
84411;SDS011;74609;44.028;20.950;2024-02-14T13:08:24;7.07;;;4.45;;
84411;SDS011;74609;44.028;20.950;2024-02-14T13:10:50;6.97;;;5.03;;
84411;SDS011;74609;44.028;20.950;2024-02-14T13:13:18;8.35;;;4.75;;
84411;SDS011;74609;44.028;20.950;2024-02-14T13:15:44;8.40;;;5.40;;
84411;SDS011;74609;44.028;20.950;2024-02-14T13:18:10;11.02;;;7.25;;
84411;SDS011;74609;44.028;20.950;2024-02-14T13:20:36;7.88;;;4.90;;
84411;SDS011;74609;44.028;20.950;2024-02-14T13:23:03;9.50;;;5.28;;
84411;SDS011;74609;44.028;20.950;2024-02-14T13:25:29;16.00;;;6.93;;
84411;SDS011;74609;44.028;20.950;2024-02-14T13:27:56;25.73;;;8.52;;
84411;SDS011;74609;44.028;20.950;2024-02-14T13:30:23;19.65;;;6.53;;
84411;SDS011;74609;44.028;20.950;2024-02-14T13:32:50;10.65;;;5.43;;
84411;SDS011;74609;44.028;20.950;2024-02-14T13:35:16;11.73;;;5.70;;
84411;SDS011;74609;44.028;20.950;2024-02-14T13:37:42;10.90;;;5.15;;
84411;SDS011;74609;44.028;20.950;2024-02-14T13:40:10;11.45;;;5.97;;
84411;SDS011;74609;44.028;20.950;2024-02-14T13:42:37;32.08;;;14.93;;
84411;SDS011;74609;44.028;20.950;2024-02-14T13:45:06;24.45;;;9.02;;
84411;SDS011;74609;44.028;20.950;2024-02-14T13:47:35;10.40;;;5.35;;
84411;SDS011;74609;44.028;20.950;2024-02-14T13:50:04;10.88;;;5.88;;
84411;SDS011;74609;44.028;20.950;2024-02-14T13:52:30;16.50;;;7.43;;
84411;SDS011;74609;44.028;20.950;2024-02-14T13:54:56;15.45;;;7.72;;
84411;SDS011;74609;44.028;20.950;2024-02-14T13:57:22;19.73;;;11.60;;
84411;SDS011;74609;44.028;20.950;2024-02-14T13:59:48;26.83;;;13.57;;
84411;SDS011;74609;44.028;20.950;2024-02-14T14:02:14;24.00;;;11.73;;
84411;SDS011;74609;44.028;20.950;2024-02-14T14:04:40;16.60;;;9.45;;
84411;SDS011;74609;44.028;20.950;2024-02-14T14:07:06;16.63;;;8.40;;
84411;SDS011;74609;44.028;20.950;2024-02-14T14:09:33;25.27;;;11.70;;
84411;SDS011;74609;44.028;20.950;2024-02-14T14:12:00;19.85;;;9.43;;
84411;SDS011;74609;44.028;20.950;2024-02-14T14:14:26;26.92;;;12.88;;
84411;SDS011;74609;44.028;20.950;2024-02-14T14:16:53;13.43;;;7.95;;
84411;SDS011;74609;44.028;20.950;2024-02-14T14:19:19;12.98;;;7.13;;
84411;SDS011;74609;44.028;20.950;2024-02-14T14:21:45;11.85;;;6.97;;
84411;SDS011;74609;44.028;20.950;2024-02-14T14:24:12;20.77;;;7.57;;
84411;SDS011;74609;44.028;20.950;2024-02-14T14:26:38;11.07;;;6.30;;
84411;SDS011;74609;44.028;20.950;2024-02-14T14:29:04;12.23;;;6.55;;
84411;SDS011;74609;44.028;20.950;2024-02-14T14:31:30;10.55;;;6.40;;
84411;SDS011;74609;44.028;20.950;2024-02-14T14:33:56;10.15;;;5.75;;